LEIBLEAL

Guest
Details From LEIB - Ibiza
To LEAL - Alicante
Flight Number -
Tags Routegen Generated
Created
Modified
Stats Distance 97 nm / 179 km
Max Altitude 200 ft / 61 m
Waypoints 7
Social Downloads 0
Likes 0
Share VATSIM

Download

Looking for another format? Having issues loading an existing format? Contact us
Advertisement - Login to hide

Notes

Departing runway 24 LEIB. Arriving runway 10 LEAL.

Route

LEIB +38.83_+001.28 +38.62_+000.61 +38.31_+000.31 +38.28_+000.38 +38.27_+000.45 LEAL

ID Type Via Altitude Latitude Longitude Leg Dist Tot Dist Heading (true) Name
O LEIB APT - 0 ft / 0 m 38.86694˚ 1.35887˚ - 0 nm - -
+38.83_+001.28 LATLON - 200 ft / 61 m 38.83295˚ 1.27684˚ 4 nm 4 nm 242° / 242° -
+38.62_+000.61 LATLON - 200 ft / 61 m 38.61530˚ 0.61259˚ 33 nm 38 nm 247° / 247° -
+38.31_+000.31 LATLON - 200 ft / 61 m 38.30590˚ -0.31398˚ 47 nm 85 nm 247° / 247° -
+38.28_+000.38 LATLON - 200 ft / 61 m 38.27705˚ -0.37793˚ 3 nm 88 nm 240° / 240° -
+38.27_+000.45 LATLON - 200 ft / 61 m 38.26711˚ -0.45057˚ 3 nm 92 nm 260° / 260° -
O LEAL APT - 0 ft / 0 m 38.27982˚ -0.54132˚ 4 nm 96 nm 280° / 280° -

Altitude Profile

Advertisement - Login to hide

LEIB

Details ICAO LEIB (IBZ)
Name Ibiza
Region Spain
Timezone Europe/Madrid (UTC+1.0)
Stats Elevation 20 ft / 6 m (AMSL)
Location 38.872871° 1.373045°
Runways 1
Magnetic Variation 0.662° E

METAR

LEIB 141830Z 25011KT 9999 FEW025 15/11 Q1015 NOSIG

Decode

TAF

TAF LEIB 141400Z 1415/1515 23014KT 9999 FEW030 TX18/1512Z TN08/1506Z TEMPO 1415/1423 26015G25KT TEMPO 1509/1514 25015G25KT BECMG 1513/1515 32009KT

Decode

Departure Runways

ID Width Length Bearing (true) Bearing (mag) Surface Threshold Offset Overrun Length
06 148 ft / 45 m 9,153 ft / 2,790 m 61.85° 61.19° Asphalt 0 ft / 0 m 213 ft / 65 m
24 148 ft / 45 m 9,153 ft / 2,790 m 241.86° 241.20° Asphalt 0 ft / 0 m 197 ft / 60 m

LEAL

Details ICAO LEAL (ALC)
Name Alicante
Region Spain
Timezone Europe/Madrid (UTC+1.0)
Stats Elevation 141 ft / 43 m (AMSL)
Location 38.282169° -0.558157°
Runways 1
Magnetic Variation 0.184° E

METAR

LEAL 141830Z 30019KT CAVOK 16/08 Q1016 NOSIG

Decode

TAF

TAF TAF LEAL 141700Z 1418/1518 28014KT 9999 FEW030 TX21/1513Z TN10/1506Z BECMG 1420/1422 24011KT BECMG 1512/1515 29012KT

Decode

Destination Runways

ID Width Length Bearing (true) Bearing (mag) Surface Threshold Offset Overrun Length
10 148 ft / 45 m 9,799 ft / 2,987 m 100.07° 99.89° Asphalt 0 ft / 0 m 164 ft / 50 m
28 148 ft / 45 m 9,799 ft / 2,987 m 280.09° 279.91° Asphalt 0 ft / 0 m 197 ft / 60 m

Approach Navaids

Runway Type Ident Frequency Range Bearing (true) Bearing (mag) Slope Elevation
10 Localiser IAT 110.30 MHz 18 nm / 33 km 100.09° 99.91° - 29 ft / 9 m (AMSL)
10 Glidescope IAT 110.30 MHz 10 nm / 19 km 100.09° 99.91° 3.00° 129 ft / 39 m (AMSL)
10 DME IAT 110.30 MHz 18 nm / 33 km - - - 129 ft / 39 m (AMSL)

Popular Alternatives